Terminal Aerodrome Forecast
Issued by NWS Sterling, VA

Current Version | Previous Version | Text Only | Print | Product List | Glossary Off
Versions: 1 2 3 4 5 6 7 8 9 10 11 12 13 14 15 16 17 18 19 20

000
FTUS41 KLWX 250800 AAA
TAFDCA
TAF AMD
KDCA 250858Z 2509/2606 00000KT P6SM FEW050
     FM251400 06007KT P6SM FEW050
     FM260100 VRB03KT P6SM FEW050=

USA.gov is the U.S. government's official web portal to all federal, state and local government web resources and services.